createdAt,value
2022-10-07T00:01:09.978Z,102270.16
2022-10-07T00:03:37.977Z,102276.41
2022-10-07T00:06:09.059Z,102272.88
2022-10-07T00:08:39.608Z,102260.44
2022-10-07T00:11:10.018Z,102268.44
2022-10-07T00:13:39.757Z,102260.44
2022-10-07T00:16:09.597Z,102272.88
2022-10-07T00:18:38.874Z,102263.13
2022-10-07T00:21:08.766Z,102259.56
2022-10-07T00:23:38.335Z,102264.00
2022-10-07T00:26:10.516Z,102260.44
2022-10-07T00:28:38.736Z,102257.78
2022-10-07T00:31:08.329Z,102251.56
2022-10-07T00:33:38.729Z,102253.34
2022-10-07T00:36:08.590Z,102259.56
2022-10-07T00:38:38.249Z,102246.25
2022-10-07T00:41:06.935Z,102248.00
2022-10-07T00:43:34.936Z,102238.22
2022-10-07T00:46:08.989Z,102242.69
2022-10-07T00:48:39.149Z,102235.56
2022-10-07T00:51:09.390Z,102238.22
2022-10-07T00:53:41.806Z,102231.16
2022-10-07T00:56:10.625Z,102240.91
2022-10-07T00:58:42.530Z,102232.03
2022-10-07T01:01:12.087Z,102227.59
2022-10-07T01:03:40.323Z,102232.03
2022-10-07T01:06:08.286Z,102228.50
2022-10-07T01:08:36.249Z,102218.75
2022-10-07T01:11:18.643Z,102218.75
2022-10-07T01:13:56.342Z,102222.31
2022-10-07T01:16:32.463Z,102206.34
2022-10-07T01:19:11.717Z,102214.31
2022-10-07T01:21:50.967Z,102209.88
2022-10-07T01:24:33.307Z,102211.66
2022-10-07T01:27:07.110Z,102201.91
2022-10-07T01:29:38.114Z,102202.78
2022-10-07T01:32:13.441Z,102198.34
2022-10-07T01:34:44.083Z,102194.81
2022-10-07T01:37:16.194Z,102190.34
2022-10-07T01:39:49.802Z,102186.81
2022-10-07T01:42:20.751Z,102186.81
2022-10-07T01:44:52.010Z,102176.16
2022-10-07T01:47:20.056Z,102171.72
2022-10-07T01:49:48.017Z,102176.16
2022-10-07T01:52:31.556Z,102176.16
2022-10-07T01:55:22.405Z,102169.97
2022-10-07T01:58:05.073Z,102170.81
2022-10-07T02:00:36.585Z,102157.53
2022-10-07T02:03:22.830Z,102163.75
2022-10-07T02:05:55.586Z,102158.41
2022-10-07T02:08:32.315Z,102155.75
2022-10-07T02:11:13.241Z,102150.41
2022-10-07T02:13:55.839Z,102146.84
2022-10-07T02:16:29.878Z,102140.66
2022-10-07T02:19:01.424Z,102130.88
2022-10-07T02:21:34.392Z,102128.22
2022-10-07T02:24:03.507Z,102124.69
2022-10-07T02:26:34.666Z,102122.00
2022-10-07T02:29:07.965Z,102123.81
2022-10-07T02:31:38.273Z,102116.72
2022-10-07T02:34:08.796Z,102114.03
2022-10-07T02:36:41.357Z,102110.50
2022-10-07T02:39:09.508Z,102110.50
2022-10-07T02:41:45.035Z,102099.84
2022-10-07T02:44:25.763Z,102101.66
2022-10-07T02:46:58.029Z,102099.88
2022-10-07T02:49:27.717Z,102101.66
2022-10-07T02:52:00.167Z,102095.47
2022-10-07T02:54:34.082Z,102095.47
2022-10-07T02:57:03.072Z,102098.13
2022-10-07T02:59:34.789Z,102097.25
2022-10-07T03:02:06.354Z,102094.59
2022-10-07T03:04:34.352Z,102088.41
2022-10-07T03:07:02.494Z,102084.84
2022-10-07T03:09:31.694Z,102077.75
2022-10-07T03:11:59.644Z,102087.53
2022-10-07T03:14:28.050Z,102073.34
2022-10-07T03:16:57.362Z,102083.97
2022-10-07T03:19:25.315Z,102082.19
2022-10-07T03:21:54.029Z,102073.31
2022-10-07T03:24:21.993Z,102074.22
2022-10-07T03:26:50.048Z,102071.56
2022-10-07T03:29:18.687Z,102069.78
2022-10-07T03:31:46.703Z,102070.69
2022-10-07T03:34:16.009Z,102068.03
2022-10-07T03:36:43.980Z,102068.00
2022-10-07T03:39:11.915Z,102062.69
2022-10-07T03:41:41.104Z,102052.06
2022-10-07T03:44:09.060Z,102053.84
2022-10-07T03:46:37.078Z,102060.03
2022-10-07T03:49:05.280Z,102054.72
2022-10-07T03:51:36.084Z,102047.63
2022-10-07T03:54:04.147Z,102043.22
2022-10-07T03:56:32.197Z,102044.09
2022-10-07T03:59:00.541Z,102042.34
2022-10-07T04:01:31.610Z,102037.91
2022-10-07T04:04:00.878Z,102040.53
2022-10-07T04:06:29.641Z,102031.69
2022-10-07T04:08:58.973Z,102031.69
2022-10-07T04:11:26.958Z,102039.69
2022-10-07T04:13:55.618Z,102024.59
2022-10-07T04:16:23.617Z,102024.63
2022-10-07T04:18:55.631Z,102035.22
2022-10-07T04:21:23.828Z,102031.69
2022-10-07T04:23:51.973Z,102032.56
2022-10-07T04:26:21.371Z,102028.13
2022-10-07T04:28:50.599Z,102025.47
2022-10-07T04:31:18.693Z,102023.69
2022-10-07T04:33:47.239Z,102021.03
2022-10-07T04:36:15.231Z,102018.38
2022-10-07T04:38:45.163Z,102021.94
2022-10-07T04:41:13.156Z,102013.94
2022-10-07T04:43:42.565Z,102018.38
2022-10-07T04:46:14.489Z,102017.50
2022-10-07T04:48:45.548Z,102021.03
2022-10-07T04:51:13.717Z,102012.19
2022-10-07T04:53:41.765Z,101998.00
2022-10-07T04:56:11.235Z,102011.28
2022-10-07T04:58:39.313Z,102005.09
2022-10-07T05:01:11.329Z,101997.09
2022-10-07T05:03:41.020Z,101999.75
2022-10-07T05:06:10.143Z,101995.34
2022-10-07T05:08:38.201Z,102003.31
2022-10-07T05:11:06.406Z,101997.13
2022-10-07T05:13:34.913Z,101998.00
2022-10-07T05:16:04.136Z,102002.44
2022-10-07T05:18:37.463Z,101992.69
2022-10-07T05:21:06.173Z,102006.88
2022-10-07T05:23:36.762Z,101998.03
2022-10-07T05:26:08.025Z,101990.94
2022-10-07T05:28:36.460Z,101993.59
2022-10-07T05:31:06.815Z,101991.84
2022-10-07T05:33:36.781Z,101995.38
2022-10-07T05:36:05.385Z,101990.03
2022-10-07T05:38:33.799Z,101985.63
2022-10-07T05:41:03.350Z,101978.53
2022-10-07T05:43:32.809Z,101978.53
2022-10-07T05:46:02.406Z,101980.31
2022-10-07T05:48:36.623Z,101979.44
2022-10-07T05:51:09.179Z,101981.19
2022-10-07T05:53:41.011Z,101976.78
2022-10-07T05:56:12.062Z,101976.78
2022-10-07T05:58:40.023Z,101982.09
2022-10-07T06:01:14.581Z,101978.56
2022-10-07T06:03:42.728Z,101986.53
2022-10-07T06:06:12.166Z,101979.41
2022-10-07T06:08:40.159Z,101976.75
2022-10-07T06:11:25.649Z,101974.09
2022-10-07T06:13:55.634Z,101967.03
2022-10-07T06:16:25.040Z,101979.44
2022-10-07T06:18:54.755Z,101984.75
2022-10-07T06:21:27.983Z,101982.06
2022-10-07T06:23:57.964Z,101980.28
2022-10-07T06:26:26.138Z,101979.38
2022-10-07T06:28:54.188Z,101978.50
2022-10-07T06:31:25.235Z,101974.06
2022-10-07T06:33:54.072Z,101975.81
2022-10-07T06:36:22.267Z,101982.88
2022-10-07T06:38:52.887Z,101977.53
2022-10-07T06:41:21.957Z,101981.97
2022-10-07T06:43:50.421Z,101971.31
2022-10-07T06:46:20.878Z,101971.31
2022-10-07T06:48:48.894Z,101975.72
2022-10-07T06:51:18.793Z,101982.78
2022-10-07T06:53:47.655Z,101980.13
2022-10-07T06:56:16.999Z,101969.44
2022-10-07T06:58:44.987Z,101970.31
2022-10-07T07:01:13.570Z,101975.59
2022-10-07T07:03:41.609Z,101968.50
2022-10-07T07:06:11.043Z,101964.00
2022-10-07T07:08:41.135Z,101951.56
2022-10-07T07:11:25.019Z,101964.81
2022-10-07T07:13:54.698Z,101965.63
2022-10-07T07:16:24.184Z,101971.78
2022-10-07T07:18:53.787Z,101971.72
2022-10-07T07:21:22.839Z,101953.97
2022-10-07T07:23:51.166Z,101956.56
2022-10-07T07:26:20.270Z,101942.38
2022-10-07T07:28:52.640Z,101955.53
2022-10-07T07:31:22.691Z,101958.97
2022-10-07T07:33:52.599Z,101954.47
2022-10-07T07:36:23.656Z,101952.63
2022-10-07T07:38:53.177Z,101948.06
2022-10-07T07:41:22.488Z,101951.59
2022-10-07T07:43:51.544Z,101939.91
2022-10-07T07:46:21.015Z,101938.03
2022-10-07T07:48:51.887Z,101932.59
2022-10-07T07:51:20.298Z,101934.31
2022-10-07T07:53:50.287Z,101937.78
2022-10-07T07:56:19.197Z,101928.78
2022-10-07T07:58:47.385Z,101931.41
2022-10-07T08:01:17.717Z,101927.78
2022-10-07T08:03:47.382Z,101923.31
2022-10-07T08:06:18.946Z,101924.16
2022-10-07T08:08:46.914Z,101922.28
2022-10-07T08:11:16.845Z,101916.88
2022-10-07T08:13:45.398Z,101880.50
2022-10-07T08:16:15.436Z,101916.56
2022-10-07T08:18:45.833Z,101898.66
2022-10-07T08:21:18.147Z,101911.06
2022-10-07T08:23:47.888Z,101910.09
2022-10-07T08:26:16.357Z,101904.59
2022-10-07T08:28:44.967Z,101908.03
2022-10-07T08:31:15.029Z,101907.03
2022-10-07T08:33:45.481Z,101896.28
2022-10-07T08:36:16.874Z,101898.84
2022-10-07T08:38:48.171Z,101892.44
2022-10-07T08:41:33.215Z,101885.16
2022-10-07T08:44:16.576Z,101892.91
2022-10-07T08:46:58.202Z,101887.25
2022-10-07T08:49:34.406Z,101864.09
2022-10-07T08:52:16.942Z,101883.19
2022-10-07T08:54:44.917Z,101881.25
2022-10-07T08:57:20.471Z,101873.13
2022-10-07T08:59:53.399Z,101869.38
2022-10-07T09:02:30.986Z,101864.78
2022-10-07T09:05:06.330Z,101860.22
2022-10-07T09:07:39.139Z,101857.63
2022-10-07T09:10:22.478Z,101853.06
2022-10-07T09:12:56.342Z,101852.78
2022-10-07T09:15:35.227Z,101843.56
2022-10-07T09:18:10.352Z,101845.66
2022-10-07T09:20:44.726Z,101841.00
2022-10-07T09:23:16.466Z,101843.59
2022-10-07T09:25:44.840Z,101836.25
2022-10-07T09:28:14.998Z,101845.16
2022-10-07T09:30:44.108Z,101837.97
2022-10-07T09:33:16.310Z,101829.25
2022-10-07T09:35:57.441Z,101825.84
2022-10-07T09:38:35.974Z,101821.53
2022-10-07T09:41:19.565Z,101817.16
2022-10-07T09:43:58.257Z,101796.91
2022-10-07T09:46:35.042Z,101816.22
2022-10-07T09:49:04.435Z,101807.97
2022-10-07T09:51:35.125Z,101807.88
2022-10-07T09:54:06.420Z,101796.16
2022-10-07T09:56:39.160Z,101795.94
2022-10-07T09:59:23.859Z,101795.69
2022-10-07T10:01:53.749Z,101791.81
2022-10-07T10:04:27.992Z,101793.28
2022-10-07T10:06:59.684Z,101789.56
2022-10-07T10:09:29.324Z,101778.69
2022-10-07T10:12:10.679Z,101775.84
2022-10-07T10:14:46.815Z,101780.22
2022-10-07T10:17:28.065Z,101777.28
2022-10-07T10:19:56.745Z,101772.59
2022-10-07T10:22:27.457Z,101768.03
2022-10-07T10:25:15.665Z,101777.66
2022-10-07T10:27:56.617Z,101761.47
2022-10-07T10:30:25.905Z,101769.31
2022-10-07T10:33:12.136Z,101769.09
2022-10-07T10:35:51.608Z,101753.78
2022-10-07T10:38:34.535Z,101750.09
2022-10-07T10:41:10.570Z,101717.91
2022-10-07T10:43:52.062Z,101748.63
2022-10-07T10:46:32.000Z,101742.03
2022-10-07T10:49:10.913Z,101736.28
2022-10-07T10:51:55.740Z,101742.28
2022-10-07T10:54:32.240Z,101739.53
2022-10-07T10:57:14.785Z,101729.78
2022-10-07T10:59:58.173Z,101725.94
2022-10-07T11:02:53.606Z,101724.09
2022-10-07T11:05:25.061Z,101727.50
2022-10-07T11:07:57.055Z,101716.53
2022-10-07T11:10:28.279Z,101710.22
2022-10-07T11:12:59.374Z,101712.69
2022-10-07T11:15:32.192Z,101700.09
2022-10-07T11:18:06.656Z,101691.91
2022-10-07T11:20:42.285Z,101681.81
2022-10-07T11:23:22.390Z,101692.34
2022-10-07T11:25:57.216Z,101686.63
2022-10-07T11:28:29.056Z,101675.72
2022-10-07T11:31:04.195Z,101675.34
2022-10-07T11:33:40.148Z,101673.59
2022-10-07T11:36:16.917Z,101670.72
2022-10-07T11:38:46.510Z,101663.47
2022-10-07T11:41:20.927Z,101664.13
2022-10-07T11:43:55.687Z,101653.50
2022-10-07T11:46:29.738Z,101659.28
2022-10-07T11:49:04.564Z,101655.34
2022-10-07T11:51:37.754Z,101663.31
2022-10-07T11:54:09.119Z,101649.50
2022-10-07T11:56:40.223Z,101645.03
2022-10-07T11:59:29.270Z,101643.06
2022-10-07T12:01:57.257Z,101625.16
2022-10-07T12:04:40.209Z,101632.09
2022-10-07T12:07:40.926Z,101622.31
2022-10-07T12:10:21.969Z,101619.28
2022-10-07T12:12:55.820Z,101620.50
2022-10-07T12:15:31.738Z,101610.50
2022-10-07T12:18:29.826Z,101610.75
2022-10-07T12:21:06.745Z,101607.72
2022-10-07T12:23:45.524Z,101597.56
2022-10-07T12:26:50.749Z,101592.88
2022-10-07T12:29:35.150Z,101572.63
2022-10-07T12:32:04.808Z,101586.19
2022-10-07T12:34:43.450Z,101571.94
2022-10-07T12:37:46.406Z,101575.38
2022-10-07T12:40:18.918Z,101576.47
2022-10-07T12:42:55.185Z,101553.81
2022-10-07T12:45:27.589Z,101560.25
2022-10-07T12:48:01.719Z,101560.47
2022-10-07T12:50:31.791Z,101553.94
2022-10-07T12:53:03.567Z,101544.72
2022-10-07T12:55:36.914Z,101550.41
2022-10-07T12:58:33.356Z,101549.16
2022-10-07T13:01:17.333Z,101542.38
2022-10-07T13:04:06.702Z,101524.16
2022-10-07T13:07:12.789Z,101530.22
2022-10-07T13:10:04.430Z,101529.81
2022-10-07T13:12:45.324Z,101525.88
2022-10-07T13:15:25.102Z,101522.66
2022-10-07T13:17:59.788Z,101514.88
2022-10-07T13:20:58.394Z,101513.22
2022-10-07T13:23:28.641Z,101510.09
2022-10-07T13:26:00.022Z,101495.59
2022-10-07T13:28:38.945Z,101497.84
2022-10-07T13:31:16.898Z,101498.31
2022-10-07T13:33:45.003Z,101496.38
2022-10-07T13:36:18.823Z,101501.09
2022-10-07T13:38:48.469Z,101495.47
2022-10-07T13:41:22.089Z,101492.16
2022-10-07T13:43:54.147Z,101486.44
2022-10-07T13:46:26.695Z,101485.28
2022-10-07T13:48:56.383Z,101482.00
2022-10-07T13:51:31.120Z,101479.97
2022-10-07T13:54:01.050Z,101476.00
2022-10-07T13:56:33.627Z,101467.22
2022-10-07T13:59:03.254Z,101476.66
2022-10-07T14:01:33.372Z,101463.31
2022-10-07T14:04:12.625Z,101460.19
2022-10-07T14:06:53.544Z,101466.44
2022-10-07T14:09:26.287Z,101464.44
2022-10-07T14:11:57.393Z,101461.59
2022-10-07T14:14:32.500Z,101453.72
2022-10-07T14:17:00.844Z,101447.97
2022-10-07T14:19:33.003Z,101442.41
2022-10-07T14:22:05.144Z,101432.28
2022-10-07T14:24:33.306Z,101441.06
2022-10-07T14:27:01.581Z,101430.59
2022-10-07T14:29:37.715Z,101427.88
2022-10-07T14:32:41.093Z,101436.19
2022-10-07T14:35:19.396Z,101424.41
2022-10-07T14:37:49.271Z,101424.84
2022-10-07T14:40:19.481Z,101416.84
2022-10-07T14:42:47.815Z,101414.88
2022-10-07T14:45:18.069Z,101407.13
2022-10-07T14:47:46.391Z,101399.75
2022-10-07T14:50:14.964Z,101406.88
2022-10-07T14:52:47.135Z,101402.28
2022-10-07T14:55:20.473Z,101401.50
2022-10-07T14:57:48.800Z,101393.72
2022-10-07T15:00:20.193Z,101391.88
2022-10-07T15:02:50.182Z,101390.94
2022-10-07T15:05:18.819Z,101386.94
2022-10-07T15:07:47.248Z,101387.16
2022-10-07T15:10:19.301Z,101383.34
2022-10-07T15:12:48.362Z,101384.59
2022-10-07T15:15:17.059Z,101379.44
2022-10-07T15:17:45.505Z,101376.31
2022-10-07T15:20:15.176Z,101376.75
2022-10-07T15:22:43.692Z,101372.97
2022-10-07T15:25:15.208Z,101373.13
2022-10-07T15:27:45.056Z,101373.22
2022-10-07T15:30:14.624Z,101370.97
2022-10-07T15:32:42.607Z,101368.94
2022-10-07T15:35:10.986Z,101369.22
2022-10-07T15:37:39.387Z,101373.06
2022-10-07T15:40:08.867Z,101370.78
2022-10-07T15:42:37.326Z,101361.22
2022-10-07T15:45:08.020Z,101365.03
2022-10-07T15:47:36.511Z,101357.13
2022-10-07T15:50:04.822Z,101354.88
2022-10-07T15:52:32.805Z,101350.72
2022-10-07T15:55:07.396Z,101350.91
2022-10-07T15:57:36.171Z,101348.09
2022-10-07T16:00:06.250Z,101343.72
2022-10-07T16:02:36.072Z,101345.59
2022-10-07T16:05:04.509Z,101348.63
2022-10-07T16:07:32.426Z,101347.91
2022-10-07T16:10:00.434Z,101347.81
2022-10-07T16:12:28.395Z,101345.13
2022-10-07T16:14:56.478Z,101339.28
2022-10-07T16:17:27.081Z,101350.19
2022-10-07T16:19:55.058Z,101340.56
2022-10-07T16:22:23.081Z,101335.31
2022-10-07T16:24:52.105Z,101349.63
2022-10-07T16:27:20.136Z,101339.03
2022-10-07T16:30:05.427Z,101339.91
2022-10-07T16:32:34.739Z,101319.66
2022-10-07T16:35:02.699Z,101337.47
2022-10-07T16:37:30.906Z,101335.91
2022-10-07T16:39:58.855Z,101334.94
2022-10-07T16:42:28.182Z,101328.75
2022-10-07T16:44:56.128Z,101328.75
2022-10-07T16:47:24.144Z,101326.16
2022-10-07T16:49:53.497Z,101335.19
2022-10-07T16:52:21.696Z,101328.13
2022-10-07T16:54:49.794Z,101330.13
2022-10-07T16:57:18.452Z,101321.91
2022-10-07T16:59:46.408Z,101327.44
2022-10-07T17:02:14.390Z,101324.88
2022-10-07T17:04:42.350Z,101324.81
2022-10-07T17:07:11.631Z,101314.06
2022-10-07T17:09:39.616Z,101315.13
2022-10-07T17:12:07.588Z,101314.31
2022-10-07T17:14:37.040Z,101318.00
2022-10-07T17:17:07.704Z,101315.31
2022-10-07T17:19:36.534Z,101309.16
2022-10-07T17:22:05.022Z,101301.16
2022-10-07T17:24:35.646Z,101301.75
2022-10-07T17:27:03.658Z,101301.28
2022-10-07T17:29:34.138Z,101303.06
2022-10-07T17:32:02.598Z,101303.13
2022-10-07T17:34:32.441Z,101307.78
2022-10-07T17:37:00.462Z,101299.59
2022-10-07T17:39:28.431Z,101306.03
2022-10-07T17:41:57.934Z,101295.28
2022-10-07T17:44:26.836Z,101301.66
2022-10-07T17:46:56.693Z,101298.22
2022-10-07T17:49:24.690Z,101294.72
2022-10-07T17:51:52.643Z,101305.47
2022-10-07T17:54:20.582Z,101288.53
2022-10-07T17:56:48.579Z,101289.34
2022-10-07T17:59:17.988Z,101288.53
2022-10-07T18:01:46.064Z,101295.69
2022-10-07T18:04:17.912Z,101289.53
2022-10-07T18:06:47.958Z,101290.59
2022-10-07T18:09:19.199Z,101283.41
2022-10-07T18:12:04.857Z,101285.41
2022-10-07T18:14:54.134Z,101284.53
2022-10-07T18:17:24.544Z,101284.63
2022-10-07T18:19:52.813Z,101286.47
2022-10-07T18:22:21.197Z,101281.97
2022-10-07T18:24:49.776Z,101268.91
2022-10-07T18:27:18.009Z,101272.31
2022-10-07T18:29:47.331Z,101265.31
2022-10-07T18:32:15.332Z,101259.78
2022-10-07T18:34:43.306Z,101258.09
2022-10-07T18:37:11.305Z,101248.19
2022-10-07T18:39:39.787Z,101246.56
2022-10-07T18:42:08.311Z,101255.63
2022-10-07T18:44:36.524Z,101238.84
2022-10-07T18:47:05.920Z,101252.09
2022-10-07T18:49:33.877Z,101248.75
2022-10-07T18:52:01.942Z,101244.56
2022-10-07T18:54:29.911Z,101248.81
2022-10-07T18:56:57.918Z,101253.13
2022-10-07T18:59:25.909Z,101246.97
2022-10-07T19:01:53.920Z,101246.19
2022-10-07T19:04:23.665Z,101244.56
2022-10-07T19:06:51.678Z,101247.09
2022-10-07T19:09:21.585Z,101245.47
2022-10-07T19:11:50.503Z,101215.56
2022-10-07T19:14:17.605Z,101227.63
2022-10-07T19:16:49.007Z,101226.94
2022-10-07T19:19:19.230Z,101218.94
2022-10-07T19:21:51.432Z,101204.75
2022-10-07T19:24:20.164Z,101218.25
2022-10-07T19:26:50.214Z,101222.88
2022-10-07T19:29:18.975Z,101230.09
2022-10-07T19:31:49.794Z,101224.00
2022-10-07T19:34:28.204Z,101225.06
2022-10-07T19:36:58.343Z,101221.63
2022-10-07T19:39:26.618Z,101231.69
2022-10-07T19:41:57.325Z,101222.00
2022-10-07T19:44:25.747Z,101227.50
2022-10-07T19:46:54.310Z,101198.50
2022-10-07T19:49:22.443Z,101213.25
2022-10-07T19:51:50.439Z,101212.56
2022-10-07T19:54:19.866Z,101220.66
2022-10-07T19:56:47.924Z,101219.91
2022-10-07T19:59:16.169Z,101218.16
2022-10-07T20:01:47.331Z,101183.09
2022-10-07T20:04:17.049Z,101200.88
2022-10-07T20:06:45.038Z,101208.66
2022-10-07T20:09:15.615Z,101206.19
2022-10-07T20:11:46.659Z,101195.53
2022-10-07T20:14:15.184Z,101194.78
2022-10-07T20:16:43.454Z,101196.63
2022-10-07T20:19:15.695Z,101190.34
2022-10-07T20:21:44.058Z,101190.34
2022-10-07T20:24:14.431Z,101181.56
2022-10-07T20:26:43.933Z,101182.66
2022-10-07T20:29:15.284Z,101172.00
2022-10-07T20:31:43.837Z,101177.56
2022-10-07T20:34:14.356Z,101176.03
2022-10-07T20:36:42.668Z,101182.41
2022-10-07T20:39:33.151Z,101168.34
2022-10-07T20:42:18.735Z,101170.16
2022-10-07T20:44:49.351Z,101168.56
2022-10-07T20:47:17.774Z,101172.41
2022-10-07T20:49:48.193Z,101162.78
2022-10-07T20:52:18.353Z,101158.53
2022-10-07T20:54:47.153Z,101153.16
2022-10-07T20:57:17.257Z,101139.97
2022-10-07T20:59:45.595Z,101149.00
2022-10-07T21:02:17.162Z,101139.31
2022-10-07T21:04:46.959Z,101137.50
2022-10-07T21:07:16.122Z,101132.22
2022-10-07T21:09:44.121Z,101137.50
2022-10-07T21:12:14.198Z,101138.47
2022-10-07T21:14:44.115Z,101133.19
2022-10-07T21:17:14.627Z,101133.13
2022-10-07T21:19:42.556Z,101141.09
2022-10-07T21:22:10.684Z,101126.00
2022-10-07T21:24:38.653Z,101123.38
2022-10-07T21:27:08.138Z,101116.13
2022-10-07T21:29:40.779Z,101118.94
2022-10-07T21:32:09.378Z,101108.22
2022-10-07T21:34:38.752Z,101111.06
2022-10-07T21:37:06.714Z,101105.88
2022-10-07T21:39:34.761Z,101106.75
2022-10-07T21:42:02.953Z,101081.28
2022-10-07T21:44:33.182Z,101098.75
2022-10-07T21:47:01.181Z,101076.50
2022-10-07T21:49:29.127Z,101099.44
2022-10-07T21:51:58.438Z,101089.75
2022-10-07T21:54:26.428Z,101090.84
2022-10-07T21:56:54.388Z,101090.84
2022-10-07T21:59:22.348Z,101090.03
2022-10-07T22:01:50.521Z,101080.25
2022-10-07T22:04:19.697Z,101085.63
2022-10-07T22:07:05.053Z,101087.50
2022-10-07T22:09:35.660Z,101073.38
2022-10-07T22:12:03.660Z,101076.19
2022-10-07T22:14:31.665Z,101077.88
2022-10-07T22:16:59.647Z,101072.66
2022-10-07T22:19:27.659Z,101072.75
2022-10-07T22:21:55.655Z,101078.22
2022-10-07T22:24:24.545Z,101080.84
2022-10-07T22:26:53.861Z,101069.31
2022-10-07T22:29:23.056Z,101065.81
2022-10-07T22:31:51.071Z,101061.44
2022-10-07T22:34:36.593Z,101063.38
2022-10-07T22:37:05.525Z,101061.50
2022-10-07T22:39:33.588Z,101050.84
2022-10-07T22:42:03.690Z,101050.03
2022-10-07T22:44:31.948Z,101042.13
2022-10-07T22:47:00.466Z,101047.50
2022-10-07T22:49:30.234Z,101045.81
2022-10-07T22:51:59.946Z,101045.91
2022-10-07T22:54:29.362Z,101047.72
2022-10-07T22:56:57.323Z,101042.47
2022-10-07T22:59:26.664Z,101043.28
2022-10-07T23:01:54.661Z,101042.59
2022-10-07T23:04:22.623Z,101040.06
2022-10-07T23:06:50.860Z,101038.31
2022-10-07T23:09:18.802Z,101034.72
2022-10-07T23:11:46.846Z,101035.75
2022-10-07T23:14:14.916Z,101039.34
2022-10-07T23:16:44.328Z,101037.53
2022-10-07T23:19:12.538Z,101020.66
2022-10-07T23:21:40.939Z,101033.13
2022-10-07T23:24:10.020Z,101032.16
2022-10-07T23:26:38.693Z,101026.88
2022-10-07T23:29:08.097Z,101027.78
2022-10-07T23:31:36.303Z,101018.75
2022-10-07T23:34:07.325Z,101020.56
2022-10-07T23:36:35.640Z,101015.25
2022-10-07T23:39:04.110Z,101023.41
2022-10-07T23:41:32.393Z,101018.00
2022-10-07T23:44:02.922Z,101015.31
2022-10-07T23:46:33.086Z,101007.28
2022-10-07T23:49:01.407Z,101015.31
2022-10-07T23:51:32.211Z,101011.72
2022-10-07T23:54:02.314Z,101009.00
2022-10-07T23:56:30.778Z,100995.66
2022-10-07T23:58:59.025Z,100992.31
